Lowell, Massachusetts
Current Conditions -  °F | °C
As of 5:10 PM on Thursday 23 Oct 2014 (Local Time) from KLWM Reporting Station
Haze Haze  
Wind Chill: 52°   Ceiling: 900
Heat Index: 52°   Visibility: 4mi
Dew Point: 50°   Wind: 17mph
Humidity: 93%   Direction: 20°NNE
Pressure: 29.67"   Gusts: 31mph
Location:  42.65°N, 71.31°W
Report Text: KLWM 232110Z 02015G27KT 4SM BR OVC009 11/10 A2967 RMK AO2 PK WND 02029/2057 CIG 007V013 T01110100
Loading
Personal Weather Stations






























Interactive Weather Map New forecast layout! Learn more

10-Day Weather Forecast

Advertisements
Track Severe Weather on mobile